Flight Track Log - Related Links

Times and Time Zones

All times are in EDT time to prevent confusion due to time zone crossing. See the N799CP flight status page for this flight to view local times or setup timezone preferences in your user account.

Time Position Orientation Groundspeed Altitude Reporting Facility
EDT Latitude Longitude Course Direction KTS MPH feet Rate Location/Type
Mon 11:40:16 AM 39.9090 -105.1165 304° West 148 170 5,400  Level FlightAware ADS-B (EGNT / NCL)
Mon 11:42:00 AM 39.8486 -104.8696 109° East  Level FlightAware Approximate
Mon 11:43:00 AM 39.8131 -104.7288 102° East  Level FlightAware Approximate
Mon 11:44:00 AM 39.8485 -104.6258 21° North  Level FlightAware Approximate
Mon 11:44:30 AM 40.1644 -104.9219 21° North 373 429 16,900  Level FlightAware ADS-B (EGNT / NCL)
Mon 11:45:21 AM 40.2166 -104.8359 51° Northeast 355 409 20,600 3,612 Climbing FlightAware ADS-B (EGNT / NCL)
Mon 11:46:08 AM 40.2573 -104.7690 51° Northeast 366 421 22,800 2,364 Climbing FlightAware ADS-B (EGNT / NCL)
Mon 11:48:39 AM 40.4224 -104.4956 52° Northeast 401 461 28,400 1,815 Climbing FlightAware ADS-B (EGNT / NCL)
Mon 11:50:06 AM 40.5272 -104.3189 52° Northeast 415 478 30,000 644 Climbing Denver Center
Mon 11:51:08 AM 40.6114 -104.2158 43° Northeast 420 483 30,000  Level Denver Center
Mon 11:52:10 AM 40.7136 -104.1569 24° Northeast 401 461 30,000 629 Level Denver Center
Mon 11:53:12 AM 40.8172 -104.1011 22° Northeast 402 463 31,300 1,306 Climbing Denver Center
Mon 11:54:14 AM 40.9222 -103.9617 45° Northeast 443 510 32,700 1,355 Climbing Denver Center
Mon 11:55:16 AM 41.0053 -103.8411 48° Northeast 457 526 34,100 1,500 Climbing Denver Center
Mon 11:56:18 AM 41.1031 -103.7017 47° Northeast 463 533 35,800 1,355 Climbing Denver Center
Mon 11:57:20 AM 41.1836 -103.5828 48° Northeast 457 526 36,900 581 Climbing Denver Center
Mon 11:58:22 AM 41.2656 -103.4647 47° Northeast 455 524 37,000 97 Climbing Denver Center
Mon 11:59:24 AM 41.3606 -103.3256 48° Northeast 455 524 37,100 532 Climbing Denver Center
Mon 12:00:26 PM 41.4256 -103.1850 58° Northeast 470 541 38,100 1,016 Climbing Denver Center
Mon 12:01:28 PM 41.4972 -103.0142 61° Northeast 473 544 39,200 1,161 Climbing Denver Center
Mon 12:02:30 PM 41.5572 -102.8667 61° Northeast 474 545 40,500 864 Climbing Denver Center
Mon 12:03:33 PM 41.6261 -102.6967 61° Northeast 469 540 41,000 240 Climbing Denver Center
Mon 12:04:35 PM 41.6922 -102.5325 62° Northeast 477 549 41,000  Level Denver Center
Mon 12:05:37 PM 41.7578 -102.3706 61° Northeast 484 557 41,000  Level Denver Center
Mon 12:06:39 PM 41.8239 -102.2044 62° Northeast 479 551 41,000  Level Denver Center
Mon 12:07:41 PM 41.8844 -102.0539 62° Northeast 479 551 41,000  Level Denver Center
Mon 12:08:43 PM 41.9558 -101.8756 62° Northeast 485 558 41,000  Level Denver Center
Mon 12:09:45 PM 42.0153 -101.7225 62° Northeast 482 555 41,000  Level Denver Center
Mon 12:10:47 PM 42.0853 -101.5444 62° Northeast 480 552 41,000  Level Denver Center
Mon 12:11:49 PM 42.1456 -101.3897 62° Northeast 483 556 41,000  Level Denver Center
Mon 12:12:51 PM 42.2050 -101.2358 62° Northeast 483 556 41,000  Level Denver Center
Mon 12:13:53 PM 42.2736 -101.0589 62° Northeast 478 550 41,000  Level Denver Center
Mon 12:14:55 PM 42.3322 -100.9044 63° Northeast 480 552 41,000  Level Denver Center
Mon 12:15:57 PM 42.4011 -100.7239 63° Northeast 482 555 41,000  Level Denver Center
Mon 12:16:59 PM 42.4597 -100.5675 63° Northeast 485 558 41,000  Level Denver Center
Mon 12:18:02 PM 42.5292 -100.3833 63° Northeast 489 563 41,000  Level Denver Center
Mon 12:19:04 PM 42.5875 -100.2261 63° Northeast 489 563 41,000  Level Denver Center
Mon 12:20:06 PM 42.6567 -100.0397 63° Northeast 493 567 41,000  Level Denver Center
Mon 12:21:08 PM 42.7156 -99.8817 63° Northeast 487 560 41,000  Level Denver Center
Mon 12:22:10 PM 42.7817 -99.7203 61° Northeast 489 563 41,000  Level Denver Center
Mon 12:23:12 PM 42.8519 -99.5669 58° Northeast 482 555 41,000  Level Denver Center
Mon 12:24:14 PM 42.9211 -99.4114 59° Northeast 481 554 41,000  Level Denver Center
Mon 12:30:22 PM 43.3634 -98.4095 59° Northeast 489 563 41,000  Level FlightAware ADS-B
Mon 12:30:49 PM 43.3820 -98.3664 59° Northeast 489 563 41,000  Level FlightAware ADS-B
Mon 12:32:12 PM 43.4909 -98.1130 59° Northeast 485 558 41,000  Level FlightAware ADS-B
Mon 12:32:48 PM 43.5133 -98.0604 60° Northeast 485 558 41,000  Level FlightAware ADS-B
Mon 12:33:33 PM 43.5639 -97.9416 60° Northeast 483 556 41,000  Level FlightAware ADS-B
Mon 12:34:39 PM 43.6027 -97.8505 60° Northeast 482 555 41,000  Level FlightAware ADS-B
Mon 12:35:56 PM 43.7158 -97.5840 60° Northeast 481 554 41,000  Level FlightAware ADS-B
Mon 12:36:49 PM 43.7925 -97.4003 60° Northeast 473 544 41,000  Level Minneapolis Center
Mon 12:37:54 PM 43.8572 -97.2436 60° Northeast 470 541 41,000  Level Minneapolis Center
Mon 12:38:56 PM 43.9358 -97.0536 60° Northeast 473 544 41,000 -279 Level Minneapolis Center
Mon 12:44:21 PM 44.2915 -96.1820 60° Northeast 487 560 39,200 -531 Descending FlightAware ADS-B
Mon 12:45:09 PM 44.3375 -96.0706 60° Northeast 484 557 37,700 -1,745 Descending Minneapolis Center
Mon 12:46:11 PM 44.4017 -95.9083 61° Northeast 479 551 36,000 -871 Descending Minneapolis Center
Mon 12:47:13 PM 44.4656 -95.7483 61° Northeast 473 544 35,900 -1,694 Descending Minneapolis Center
Mon 12:48:15 PM 44.5436 -95.5486 61° Northeast 483 556 32,500 -3,097 Descending Minneapolis Center
Mon 12:49:17 PM 44.6039 -95.3739 64° Northeast 495 570 29,500 -2,903 Descending Minneapolis Center
Mon 12:50:19 PM 44.6406 -95.1878 74° East 496 571 26,500 -3,000 Descending Minneapolis Center
Mon 12:51:21 PM 44.6781 -95.0103 73° East 479 551 23,300 -3,000 Descending Minneapolis Center
Mon 12:52:23 PM 44.7136 -94.8397 74° East 462 532 20,300 -2,806 Descending Minneapolis Center
Mon 12:53:25 PM 44.7469 -94.6758 74° East 445 512 17,500 -2,758 Descending Minneapolis Center
Mon 12:54:27 PM 44.7814 -94.5103 74° East 396 456 14,600 -2,468 Descending Minneapolis Center
Mon 12:55:29 PM 44.8075 -94.3833 74° East 339 390 12,400 -2,129 Descending Minneapolis Center
Mon 12:56:31 PM 44.8308 -94.2633 75° East 319 367 10,200 -2,081 Descending Minneapolis Center
Mon 12:57:33 PM 44.8622 -94.1217 73° East 316 364 8,100 -1,452 Descending Minneapolis Center
Mon 12:58:35 PM 44.8708 -94.0203 83° East 291 335 7,200 -1,008 Descending Minneapolis Center
Mon 12:59:38 PM 44.8278 -93.9281 123° Southeast 284 327 6,000 -912 Descending Minneapolis Center
Mon 01:00:40 PM 44.7914 -93.8458 122° Southeast 254 292 5,300 -484 Descending Minneapolis Center
Mon 01:01:42 PM 44.7572 -93.7725 123° Southeast 229 264 5,000 -145 Descending Minneapolis Center
Mon 01:02:44 PM 44.7317 -93.6903 114° Southeast 230 265 5,000 -48 Level Minneapolis Center
Mon 01:03:46 PM 44.7194 -93.5908 100° East 231 266 4,900 -48 Descending Minneapolis Center
Mon 01:04:48 PM 44.7431 -93.5100 68° East 224 258 4,900 48 Level Minneapolis Center
Mon 01:05:51 PM 44.7667 -93.4306 67° East 221 254 5,000 48 Climbing Minneapolis Center
Mon 01:06:53 PM 44.7906 -93.3506 67° East 221 254 5,000 -48 Level Minneapolis Center
Mon 01:07:55 PM 44.8150 -93.2694 67° East 221 254 4,900  Descending Minneapolis Center
Mon 01:08:57 PM 44.8481 -93.1944 58° Northeast 222 255 5,000 -145 Climbing Minneapolis Center
Mon 01:09:59 PM 44.8900 -93.1347 45° Northeast 217 250 4,600 -1,210 Descending Minneapolis Center
Mon 01:11:01 PM 44.9533 -93.0667 37° Northeast 242 278 2,500 -1,306 Descending Minneapolis Center
Mon 01:12:03 PM 44.9292 -93.0056 119° Southeast 189 217 1,900 -726 Descending Minneapolis Center
Mon 01:13:05 PM 44.9147 -93.0403 240° Southwest 134 154 1,000 -871 Descending Minneapolis Center

Login

Don't have an account? Register now (free) for customized features, flight alerts, and more!